Terminal Aerodrome Forecast
Issued by NWS Boston, MA

Home | Current Version | Previous Version | Text Only | Print | Product List | Glossary On
Versions: 1 2 3 4 5 6 7 8 9 10 11 12 13 14 15 16 17 18 19 20 21 22 23 24 25 26 27 28 29 30 31 32 33 34 35 36 37 38 39 40 41 42 43 44 45 46 47 48
000
FTUS41 KBOX 211726
TAFBOS
TAF
KBOS 211726Z 2118/2224 22022G33KT P6SM FEW250
     FM212200 22012G25KT P6SM FEW250
     FM220400 20005KT P6SM SCT100 BKN250
     FM221000 18004KT 5SM -RA OVC015
     FM221300 VRB03KT 3SM -RA BR OVC008
     FM222000 32008KT P6SM BKN045=

USA.gov is the U.S. government's official web portal to all federal, state and local government web resources and services.